Lezavel — FAA6945 — position and weather

sailwx.info

Track history (hours):
 
Tides and Currents Weather Stations Pressure Air Temp Water Temp Dewpoint Dewpoint Depression Visibility Wind Speed Wind Dir Waves Ship Positions

Lezavel

Last reported at 2018-Jun-19 23:13 UTC. Time now 2018-Jun-20 21:08 UTC.
Position N 47°33' W 002°54'.

Type: Pleasure craft. MMSI: 227147830.

Date/timePositionNaut miles runAvg speedWind from/ knotsBaromVisibWave heightAir tempDewpointWater temp
2018-Jun-19 23:13N 47°33' W 002°54'0 0.0
2018-Jun-19 22:52N 47°33' W 002°54'0 0.0
2018-Jun-19 21:52N 47°33' W 002°54'0 0.0
2018-Jun-19 20:37N 47°33' W 002°54'0 0.0
2018-Jun-19 19:31N 47°33' W 002°54'0 0.0
2018-Jun-19 19:04N 47°33' W 002°54'0 0.0
2018-Jun-19 18:37N 47°33' W 002°54'2 0.4
2018-Jun-19 14:38N 47°31' W 002°55'1 6.9
2018-Jun-19 14:28N 47°30' W 002°55'14 0.5
2018-Jun-18 09:31N 47°27' W 003°15'1 7.8
2018-Jun-18 09:19N 47°28' W 003°16'3 7.8
2018-Jun-18 09:00N 47°30' W 003°18'4 8.1
2018-Jun-18 08:30N 47°34' W 003°19'4 8.0
2018-Jun-18 08:00N 47°38' W 003°21'4 7.9
2018-Jun-18 07:30N 47°42' W 003°22'1 2.8
2018-Jun-18 06:59N 47°43' W 003°22'0 0.0
2018-Jun-18 06:29N 47°43' W 003°22'0 0.0
2018-Jun-18 05:59N 47°43' W 003°22'0 0.0
2018-Jun-18 05:29N 47°43' W 003°22'0 0.0
2018-Jun-18 04:59N 47°43' W 003°22'0 0.0
2018-Jun-18 04:29N 47°43' W 003°22'0 0.0
2018-Jun-18 03:59N 47°43' W 003°22'0 0.0
2018-Jun-18 03:29N 47°43' W 003°22'0 0.0
2018-Jun-18 02:59N 47°43' W 003°22'0 0.0
2018-Jun-18 02:29N 47°43' W 003°22'0 0.0
2018-Jun-18 01:59N 47°43' W 003°22'0 0.0
2018-Jun-18 01:29N 47°43' W 003°22'0 0.0
2018-Jun-18 00:59N 47°43' W 003°22'0 0.0
2018-Jun-18 00:29N 47°43' W 003°22'0 0.0
2018-Jun-17 23:59N 47°43' W 003°22'0 0.0
2018-Jun-17 23:29N 47°43' W 003°22'0 0.0
2018-Jun-17 22:59N 47°43' W 003°22'0 0.0
2018-Jun-17 22:29N 47°43' W 003°22'0 0.0
2018-Jun-17 21:59N 47°43' W 003°22'0 0.0
2018-Jun-17 21:29N 47°43' W 003°22'0 0.0
2018-Jun-17 20:59N 47°43' W 003°22'0 0.0
2018-Jun-17 20:29N 47°43' W 003°22'0 0.0
2018-Jun-17 19:59N 47°43' W 003°22'0 0.0
2018-Jun-17 19:29N 47°43' W 003°22'0 0.0
2018-Jun-17 18:59N 47°43' W 003°22'0 0.0
2018-Jun-17 18:29N 47°43' W 003°22'0 0.0
2018-Jun-17 17:59N 47°43' W 003°22'0 0.0
2018-Jun-17 17:29N 47°43' W 003°22'0 0.0
2018-Jun-17 16:59N 47°43' W 003°22'0 0.0
2018-Jun-17 16:29N 47°43' W 003°22'0 0.0
2018-Jun-17 15:59N 47°43' W 003°22'0 0.0
2018-Jun-17 15:29N 47°43' W 003°22'0 0.0
2018-Jun-17 14:59N 47°43' W 003°22'0 0.0
2018-Jun-17 14:29N 47°43' W 003°22'0 0.0
2018-Jun-17 13:59N 47°43' W 003°22'0 0.0
2018-Jun-17 13:29N 47°43' W 003°22'0 0.0
2018-Jun-17 12:59N 47°43' W 003°22'0 0.0
2018-Jun-17 12:29N 47°43' W 003°22'0 0.0
2018-Jun-17 11:59N 47°43' W 003°22'0 0.0
2018-Jun-17 11:29N 47°43' W 003°22'0 0.0
2018-Jun-17 10:59N 47°43' W 003°22'0 0.0
2018-Jun-17 10:29N 47°43' W 003°22'0 0.1
2018-Jun-17 10:00N 47°43' W 003°22'2 4.3
2018-Jun-17 09:31N 47°41' W 003°24'4 7.4
2018-Jun-17 08:56N 47°42' W 003°30'2 0.0
2018-Jun-15 07:54N 47°41' W 003°27'3 7.8
2018-Jun-15 07:30N 47°42' W 003°23'1 2.6
2018-Jun-15 06:58N 47°43' W 003°22'0 0.0
2018-Jun-15 06:25N 47°43' W 003°22'0 0.0
2018-Jun-15 05:58N 47°43' W 003°22'0 0.0
2018-Jun-15 05:28N 47°43' W 003°22'0 0.0
2018-Jun-15 04:58N 47°43' W 003°22'0 0.0
2018-Jun-15 04:28N 47°43' W 003°22'0 0.0
2018-Jun-15 03:58N 47°43' W 003°22'0 0.0
2018-Jun-15 03:28N 47°43' W 003°22'0 0.0
2018-Jun-15 02:58N 47°43' W 003°22'0 0.0
2018-Jun-15 02:28N 47°43' W 003°22'0 0.0
2018-Jun-15 01:58N 47°43' W 003°22'0 0.0
2018-Jun-15 01:28N 47°43' W 003°22'0 0.0
2018-Jun-15 00:58N 47°43' W 003°22'0 0.0
2018-Jun-15 00:28N 47°43' W 003°22'0 0.0
2018-Jun-14 23:58N 47°43' W 003°22'0 0.0
2018-Jun-14 23:28N 47°43' W 003°22'0 0.0
2018-Jun-14 22:58N 47°43' W 003°22'0 0.0
2018-Jun-14 22:28N 47°43' W 003°22'0 0.0
2018-Jun-14 21:58N 47°43' W 003°22'0 0.0
2018-Jun-14 21:28N 47°43' W 003°22'0 0.0
2018-Jun-14 20:58N 47°43' W 003°22'0 0.0
2018-Jun-14 20:28N 47°43' W 003°22'0 0.0
2018-Jun-14 19:58N 47°43' W 003°22'0 0.0
2018-Jun-14 19:28N 47°43' W 003°22'0 0.0
2018-Jun-14 18:58N 47°43' W 003°22'0 0.0
2018-Jun-14 18:28N 47°43' W 003°22'0 0.0
2018-Jun-14 17:58N 47°43' W 003°22'0 0.0
2018-Jun-14 17:28N 47°43' W 003°22'0 0.0
2018-Jun-14 16:58N 47°43' W 003°22'0 0.0
2018-Jun-14 16:28N 47°43' W 003°22'0 0.0
2018-Jun-14 15:58N 47°43' W 003°22'0 0.0
2018-Jun-14 15:28N 47°43' W 003°22'0 0.0
2018-Jun-14 14:58N 47°43' W 003°22'0 0.0
2018-Jun-14 14:28N 47°43' W 003°22'0 0.0
2018-Jun-14 13:58N 47°43' W 003°22'0 0.0
2018-Jun-14 13:28N 47°43' W 003°22'0 0.0
2018-Jun-14 12:58N 47°43' W 003°22'0 0.0
2018-Jun-14 12:28N 47°43' W 003°22'0 0.0
2018-Jun-14 11:58N 47°43' W 003°22'0 0.0
2018-Jun-14 11:28N 47°43' W 003°22'0 0.2
2018-Jun-14 11:00N 47°43' W 003°22'3 6.8
2018-Jun-14 10:30N 47°41' W 003°26'3 4.5
2018-Jun-14 09:50N 47°40' W 003°30'2 7.0
2018-Jun-14 09:30N 47°39' W 003°27'0 0.6
2018-Jun-14 08:59N 47°39' W 003°27'0 0.0
2018-Jun-14 06:44N 47°39' W 003°27'0 0.0
2018-Jun-14 06:29N 47°39' W 003°27'0 0.0
2018-Jun-14 05:59N 47°39' W 003°27'0 0.0
2018-Jun-14 05:14N 47°39' W 003°27'0 0.0
2018-Jun-14 04:59N 47°39' W 003°27'0 0.0
2018-Jun-14 04:17N 47°39' W 003°27'0 0.0
2018-Jun-14 03:44N 47°39' W 003°27'0 0.0
2018-Jun-14 03:29N 47°39' W 003°27'0 0.0
2018-Jun-14 02:59N 47°39' W 003°27'0 0.0
2018-Jun-14 02:26N 47°39' W 003°27'0 0.0
2018-Jun-14 01:59N 47°39' W 003°27'0 0.0
2018-Jun-14 01:29N 47°39' W 003°27'0 0.0
2018-Jun-14 00:59N 47°39' W 003°27'0 0.0
2018-Jun-14 00:26N 47°39' W 003°27'0 0.0
2018-Jun-13 23:59N 47°39' W 003°27'0 0.0
2018-Jun-13 22:35N 47°39' W 003°27'0 0.0
2018-Jun-13 21:50N 47°39' W 003°27'0 0.0
2018-Jun-13 21:23N 47°39' W 003°27'0 0.0
2018-Jun-13 20:59N 47°39' W 003°27'0 0.0
2018-Jun-13 20:20N 47°39' W 003°27'0 0.0
2018-Jun-13 19:56N 47°39' W 003°27'0 0.0
2018-Jun-13 19:29N 47°39' W 003°27'0 0.0
2018-Jun-13 18:53N 47°39' W 003°27'0 0.0
2018-Jun-13 18:29N 47°39' W 003°27'0 0.0
2018-Jun-13 17:59N 47°39' W 003°27'0 0.0
2018-Jun-13 17:29N 47°39' W 003°27'0 0.0
2018-Jun-13 16:59N 47°39' W 003°27'0 0.0
2018-Jun-13 16:29N 47°39' W 003°27'0 0.0
2018-Jun-13 15:59N 47°39' W 003°27'0 0.0
2018-Jun-13 15:29N 47°39' W 003°27'0 0.0
2018-Jun-13 15:00N 47°39' W 003°27'2 4.8
2018-Jun-13 14:30N 47°38' W 003°23'4 7.4
2018-Jun-13 14:00N 47°35' W 003°20'4 7.4
2018-Jun-13 13:29N 47°32' W 003°16'6 6.8
2018-Jun-13 12:41N 47°28' W 003°10'1 6.8
2018-Jun-13 12:29N 47°27' W 003°09'4 5.1
2018-Jun-13 11:42N 47°27' W 003°03'2 5.1
2018-Jun-13 11:23N 47°28' W 003°01'4 6.7
2018-Jun-13 10:49N 47°31' W 002°58'3 7.2
2018-Jun-13 10:28N 47°32' W 002°55'  
Track history (hours):
 
Tides and Currents Weather Stations Pressure Air Temp Water Temp Dewpoint Dewpoint Depression Visibility Wind Speed Wind Dir Waves Ship Positions

Lezavel

Last reported at 2018-Jun-19 23:13 UTC. Time now 2018-Jun-20 21:08 UTC.
Position N 47°33' W 002°54'.

Type: Pleasure craft. MMSI: 227147830.

Date/timePositionNaut miles runAvg speedWind from/ knotsBaromVisibWave heightAir tempDewpointWater temp
2018-Jun-19 23:13N 47°33' W 002°54'0 0.0
2018-Jun-19 22:52N 47°33' W 002°54'0 0.0
2018-Jun-19 21:52N 47°33' W 002°54'0 0.0
2018-Jun-19 20:37N 47°33' W 002°54'0 0.0
2018-Jun-19 19:31N 47°33' W 002°54'0 0.0
2018-Jun-19 19:04N 47°33' W 002°54'0 0.0
2018-Jun-19 18:37N 47°33' W 002°54'2 0.4
2018-Jun-19 14:38N 47°31' W 002°55'1 6.9
2018-Jun-19 14:28N 47°30' W 002°55'14 0.5
2018-Jun-18 09:31N 47°27' W 003°15'1 7.8
2018-Jun-18 09:19N 47°28' W 003°16'3 7.8
2018-Jun-18 09:00N 47°30' W 003°18'4 8.1
2018-Jun-18 08:30N 47°34' W 003°19'4 8.0
2018-Jun-18 08:00N 47°38' W 003°21'4 7.9
2018-Jun-18 07:30N 47°42' W 003°22'1 2.8
2018-Jun-18 06:59N 47°43' W 003°22'0 0.0
2018-Jun-18 06:29N 47°43' W 003°22'0 0.0
2018-Jun-18 05:59N 47°43' W 003°22'0 0.0
2018-Jun-18 05:29N 47°43' W 003°22'0 0.0
2018-Jun-18 04:59N 47°43' W 003°22'0 0.0
2018-Jun-18 04:29N 47°43' W 003°22'0 0.0
2018-Jun-18 03:59N 47°43' W 003°22'0 0.0
2018-Jun-18 03:29N 47°43' W 003°22'0 0.0
2018-Jun-18 02:59N 47°43' W 003°22'0 0.0
2018-Jun-18 02:29N 47°43' W 003°22'0 0.0
2018-Jun-18 01:59N 47°43' W 003°22'0 0.0
2018-Jun-18 01:29N 47°43' W 003°22'0 0.0
2018-Jun-18 00:59N 47°43' W 003°22'0 0.0
2018-Jun-18 00:29N 47°43' W 003°22'0 0.0
2018-Jun-17 23:59N 47°43' W 003°22'0 0.0
2018-Jun-17 23:29N 47°43' W 003°22'0 0.0
2018-Jun-17 22:59N 47°43' W 003°22'0 0.0
2018-Jun-17 22:29N 47°43' W 003°22'0 0.0
2018-Jun-17 21:59N 47°43' W 003°22'0 0.0
2018-Jun-17 21:29N 47°43' W 003°22'0 0.0
2018-Jun-17 20:59N 47°43' W 003°22'0 0.0
2018-Jun-17 20:29N 47°43' W 003°22'0 0.0
2018-Jun-17 19:59N 47°43' W 003°22'0 0.0
2018-Jun-17 19:29N 47°43' W 003°22'0 0.0
2018-Jun-17 18:59N 47°43' W 003°22'0 0.0
2018-Jun-17 18:29N 47°43' W 003°22'0 0.0
2018-Jun-17 17:59N 47°43' W 003°22'0 0.0
2018-Jun-17 17:29N 47°43' W 003°22'0 0.0
2018-Jun-17 16:59N 47°43' W 003°22'0 0.0
2018-Jun-17 16:29N 47°43' W 003°22'0 0.0
2018-Jun-17 15:59N 47°43' W 003°22'0 0.0
2018-Jun-17 15:29N 47°43' W 003°22'0 0.0
2018-Jun-17 14:59N 47°43' W 003°22'0 0.0
2018-Jun-17 14:29N 47°43' W 003°22'0 0.0
2018-Jun-17 13:59N 47°43' W 003°22'0 0.0
2018-Jun-17 13:29N 47°43' W 003°22'0 0.0
2018-Jun-17 12:59N 47°43' W 003°22'0 0.0
2018-Jun-17 12:29N 47°43' W 003°22'0 0.0
2018-Jun-17 11:59N 47°43' W 003°22'0 0.0
2018-Jun-17 11:29N 47°43' W 003°22'0 0.0
2018-Jun-17 10:59N 47°43' W 003°22'0 0.0
2018-Jun-17 10:29N 47°43' W 003°22'0 0.1
2018-Jun-17 10:00N 47°43' W 003°22'2 4.3
2018-Jun-17 09:31N 47°41' W 003°24'4 7.4
2018-Jun-17 08:56N 47°42' W 003°30'2 0.0
2018-Jun-15 07:54N 47°41' W 003°27'3 7.8
2018-Jun-15 07:30N 47°42' W 003°23'1 2.6
2018-Jun-15 06:58N 47°43' W 003°22'0 0.0
2018-Jun-15 06:25N 47°43' W 003°22'0 0.0
2018-Jun-15 05:58N 47°43' W 003°22'0 0.0
2018-Jun-15 05:28N 47°43' W 003°22'0 0.0
2018-Jun-15 04:58N 47°43' W 003°22'0 0.0
2018-Jun-15 04:28N 47°43' W 003°22'0 0.0
2018-Jun-15 03:58N 47°43' W 003°22'0 0.0
2018-Jun-15 03:28N 47°43' W 003°22'0 0.0
2018-Jun-15 02:58N 47°43' W 003°22'0 0.0
2018-Jun-15 02:28N 47°43' W 003°22'0 0.0
2018-Jun-15 01:58N 47°43' W 003°22'0 0.0
2018-Jun-15 01:28N 47°43' W 003°22'0 0.0
2018-Jun-15 00:58N 47°43' W 003°22'0 0.0
2018-Jun-15 00:28N 47°43' W 003°22'0 0.0
2018-Jun-14 23:58N 47°43' W 003°22'0 0.0
2018-Jun-14 23:28N 47°43' W 003°22'0 0.0
2018-Jun-14 22:58N 47°43' W 003°22'0 0.0
2018-Jun-14 22:28N 47°43' W 003°22'0 0.0
2018-Jun-14 21:58N 47°43' W 003°22'0 0.0
2018-Jun-14 21:28N 47°43' W 003°22'0 0.0
2018-Jun-14 20:58N 47°43' W 003°22'0 0.0
2018-Jun-14 20:28N 47°43' W 003°22'0 0.0
2018-Jun-14 19:58N 47°43' W 003°22'0 0.0
2018-Jun-14 19:28N 47°43' W 003°22'0 0.0
2018-Jun-14 18:58N 47°43' W 003°22'0 0.0
2018-Jun-14 18:28N 47°43' W 003°22'0 0.0
2018-Jun-14 17:58N 47°43' W 003°22'0 0.0
2018-Jun-14 17:28N 47°43' W 003°22'0 0.0
2018-Jun-14 16:58N 47°43' W 003°22'0 0.0
2018-Jun-14 16:28N 47°43' W 003°22'0 0.0
2018-Jun-14 15:58N 47°43' W 003°22'0 0.0
2018-Jun-14 15:28N 47°43' W 003°22'0 0.0
2018-Jun-14 14:58N 47°43' W 003°22'0 0.0
2018-Jun-14 14:28N 47°43' W 003°22'0 0.0
2018-Jun-14 13:58N 47°43' W 003°22'0 0.0
2018-Jun-14 13:28N 47°43' W 003°22'0 0.0
2018-Jun-14 12:58N 47°43' W 003°22'0 0.0
2018-Jun-14 12:28N 47°43' W 003°22'0 0.0
2018-Jun-14 11:58N 47°43' W 003°22'0 0.0
2018-Jun-14 11:28N 47°43' W 003°22'0 0.2
2018-Jun-14 11:00N 47°43' W 003°22'3 6.8
2018-Jun-14 10:30N 47°41' W 003°26'3 4.5
2018-Jun-14 09:50N 47°40' W 003°30'2 7.0
2018-Jun-14 09:30N 47°39' W 003°27'0 0.6
2018-Jun-14 08:59N 47°39' W 003°27'0 0.0
2018-Jun-14 06:44N 47°39' W 003°27'0 0.0
2018-Jun-14 06:29N 47°39' W 003°27'0 0.0
2018-Jun-14 05:59N 47°39' W 003°27'0 0.0
2018-Jun-14 05:14N 47°39' W 003°27'0 0.0
2018-Jun-14 04:59N 47°39' W 003°27'0 0.0
2018-Jun-14 04:17N 47°39' W 003°27'0 0.0
2018-Jun-14 03:44N 47°39' W 003°27'0 0.0
2018-Jun-14 03:29N 47°39' W 003°27'0 0.0
2018-Jun-14 02:59N 47°39' W 003°27'0 0.0
2018-Jun-14 02:26N 47°39' W 003°27'0 0.0
2018-Jun-14 01:59N 47°39' W 003°27'0 0.0
2018-Jun-14 01:29N 47°39' W 003°27'0 0.0
2018-Jun-14 00:59N 47°39' W 003°27'0 0.0
2018-Jun-14 00:26N 47°39' W 003°27'0 0.0
2018-Jun-13 23:59N 47°39' W 003°27'0 0.0
2018-Jun-13 22:35N 47°39' W 003°27'0 0.0
2018-Jun-13 21:50N 47°39' W 003°27'0 0.0
2018-Jun-13 21:23N 47°39' W 003°27'0 0.0
2018-Jun-13 20:59N 47°39' W 003°27'0 0.0
2018-Jun-13 20:20N 47°39' W 003°27'0 0.0
2018-Jun-13 19:56N 47°39' W 003°27'0 0.0
2018-Jun-13 19:29N 47°39' W 003°27'0 0.0
2018-Jun-13 18:53N 47°39' W 003°27'0 0.0
2018-Jun-13 18:29N 47°39' W 003°27'0 0.0
2018-Jun-13 17:59N 47°39' W 003°27'0 0.0
2018-Jun-13 17:29N 47°39' W 003°27'0 0.0
2018-Jun-13 16:59N 47°39' W 003°27'0 0.0
2018-Jun-13 16:29N 47°39' W 003°27'0 0.0
2018-Jun-13 15:59N 47°39' W 003°27'0 0.0
2018-Jun-13 15:29N 47°39' W 003°27'0 0.0
2018-Jun-13 15:00N 47°39' W 003°27'2 4.8
2018-Jun-13 14:30N 47°38' W 003°23'4 7.4
2018-Jun-13 14:00N 47°35' W 003°20'4 7.4
2018-Jun-13 13:29N 47°32' W 003°16'6 6.8
2018-Jun-13 12:41N 47°28' W 003°10'1 6.8
2018-Jun-13 12:29N 47°27' W 003°09'4 5.1
2018-Jun-13 11:42N 47°27' W 003°03'2 5.1
2018-Jun-13 11:23N 47°28' W 003°01'4 6.7
2018-Jun-13 10:49N 47°31' W 002°58'3 7.2
2018-Jun-13 10:28N 47°32' W 002°55'  

Dump ship's entire track history